Time;durP1;ratioP1;P1;durP2;ratioP2;P2;SDS_P1;SDS_P2;PMS_P1;PMS_P2;Temp;Humidity;BMP_temperature;BMP_pressure;BME280_temperature;BME280_humidity;BME280_pressure;Samples;Min_cycle;Max_cycle;Signal;HPM_P1;HPM_P2
2021/01/09 00:00:50;;;;;;;14.00;6.40;;;;;;;-1.77;76.11;102034.47;4959268;28;20136;-88
2021/01/09 00:03:16;;;;;;;20.77;7.80;;;;;;;-1.80;76.65;102035.75;4957186;28;20054;-81
2021/01/09 00:05:44;;;;;;;16.63;7.68;;;;;;;-1.80;76.58;102040.38;4980901;28;20158;-81
2021/01/09 00:08:11;;;;;;;17.50;7.55;;;;;;;-1.79;76.45;102040.13;4954347;28;20094;-82
2021/01/09 00:10:38;;;;;;;15.10;7.28;;;;;;;-1.79;76.75;102031.97;4982147;28;20045;-81
2021/01/09 00:13:05;;;;;;;18.63;7.68;;;;;;;-1.83;76.73;102031.59;4972442;28;20054;-80
2021/01/09 00:15:32;;;;;;;15.05;6.40;;;;;;;-1.85;76.59;102033.72;4974253;28;20049;-80
2021/01/09 00:17:58;;;;;;;15.18;6.47;;;;;;;-1.85;76.56;102027.47;5005733;28;20132;-80
2021/01/09 00:20:24;;;;;;;13.65;5.85;;;;;;;-1.85;76.62;102022.88;4989870;28;20474;-82
2021/01/09 00:22:51;;;;;;;16.33;6.50;;;;;;;-1.86;76.83;102033.97;4971779;28;20117;-87
2021/01/09 00:25:18;;;;;;;13.68;6.25;;;;;;;-1.88;76.58;102031.47;4955950;28;20426;-87
2021/01/09 00:27:45;;;;;;;14.80;5.85;;;;;;;-1.88;76.64;102028.75;4976073;28;20030;-86
2021/01/09 00:30:12;;;;;;;14.73;6.05;;;;;;;-1.90;76.94;102025.47;5007238;28;20446;-85
2021/01/09 00:32:38;;;;;;;18.95;6.38;;;;;;;-1.89;76.86;102034.44;4959685;28;20050;-84
2021/01/09 00:35:06;;;;;;;12.02;5.97;;;;;;;-1.90;76.84;102024.63;4978492;28;20046;-82
2021/01/09 00:37:33;;;;;;;8.80;4.63;;;;;;;-1.91;77.27;102023.78;4970682;28;20407;-83
2021/01/09 00:39:59;;;;;;;14.98;6.82;;;;;;;-1.93;77.15;102027.78;4970325;28;20049;-84
2021/01/09 00:42:26;;;;;;;11.05;5.32;;;;;;;-1.93;77.24;102028.63;4957649;28;20346;-83
2021/01/09 00:44:52;;;;;;;16.00;6.82;;;;;;;-1.92;77.42;102032.19;4978788;28;20042;-82
2021/01/09 00:47:18;;;;;;;14.20;5.90;;;;;;;-1.91;77.17;102034.66;4979525;28;20042;-83
2021/01/09 00:49:45;;;;;;;7.22;5.05;;;;;;;-1.93;76.97;102031.34;4982600;28;20113;-85
2021/01/09 00:52:11;;;;;;;11.50;5.65;;;;;;;-1.91;77.07;102026.50;4988490;28;20082;-82
2021/01/09 00:54:41;;;;;;;11.18;5.40;;;;;;;-1.92;76.88;102024.03;4978226;28;20050;-84
2021/01/09 00:57:08;;;;;;;14.57;5.68;;;;;;;-1.92;77.24;102027.59;4963200;28;20498;-83
2021/01/09 00:59:34;;;;;;;11.60;4.90;;;;;;;-1.92;77.07;102029.47;4979090;28;20372;-83
2021/01/09 01:02:01;;;;;;;9.15;4.63;;;;;;;-1.91;77.26;102028.41;4979008;28;20816;-83
2021/01/09 01:04:28;;;;;;;15.50;5.60;;;;;;;-1.92;77.06;102033.00;4979130;28;20081;-84
2021/01/09 01:06:54;;;;;;;14.23;5.65;;;;;;;-1.91;76.87;102028.41;4993153;28;20056;-83
2021/01/09 01:09:21;;;;;;;14.15;5.82;;;;;;;-1.91;77.14;102023.78;5002466;28;20094;-85
2021/01/09 01:11:48;;;;;;;11.68;5.03;;;;;;;-1.90;76.83;102036.31;4978473;28;20070;-84
2021/01/09 01:14:15;;;;;;;11.07;5.25;;;;;;;-1.91;76.89;102031.94;4980022;28;20043;-84
2021/01/09 01:16:43;;;;;;;13.60;6.50;;;;;;;-1.91;76.99;102037.34;4978916;28;20121;-83
2021/01/09 01:19:11;;;;;;;16.70;6.63;;;;;;;-1.92;76.99;102038.44;4986678;28;20050;-84
2021/01/09 01:21:39;;;;;;;16.35;8.30;;;;;;;-1.93;77.07;102027.78;4987819;28;20470;-84
2021/01/09 01:24:07;;;;;;;12.88;6.78;;;;;;;-1.92;77.28;102033.00;4978413;28;20038;-84
2021/01/09 01:26:35;;;;;;;17.15;6.97;;;;;;;-1.95;77.09;102036.19;4964745;28;20066;-83
2021/01/09 01:29:03;;;;;;;10.45;5.53;;;;;;;-1.97;77.14;102037.47;4996767;28;20043;-85
2021/01/09 01:31:30;;;;;;;10.45;5.32;;;;;;;-2.01;76.96;102042.53;4960616;28;20055;-83
2021/01/09 01:33:56;;;;;;;9.55;5.30;;;;;;;-2.01;76.76;102047.13;4963067;28;20054;-84
2021/01/09 01:36:23;;;;;;;21.40;8.77;;;;;;;-2.01;77.16;102045.25;4979076;28;20125;-85
2021/01/09 01:38:50;;;;;;;24.55;9.45;;;;;;;-2.07;76.85;102062.47;4979159;28;20794;-85
2021/01/09 01:41:16;;;;;;;21.83;8.35;;;;;;;-2.06;77.02;102055.97;4978420;28;20051;-85
2021/01/09 01:43:43;;;;;;;17.50;7.97;;;;;;;-2.06;76.88;102063.25;4972940;28;20495;-83
2021/01/09 01:46:10;;;;;;;14.45;8.07;;;;;;;-2.09;76.98;102053.69;4996020;28;20046;-85
2021/01/09 01:48:38;;;;;;;20.00;10.40;;;;;;;-2.12;77.02;102059.56;4994653;28;20494;-84
2021/01/09 01:51:05;;;;;;;20.80;9.50;;;;;;;-2.15;77.03;102061.94;4976870;28;20063;-84
2021/01/09 01:53:32;;;;;;;16.90;8.88;;;;;;;-2.17;77.17;102059.44;4979154;28;20402;-84
2021/01/09 01:55:59;;;;;;;16.33;7.38;;;;;;;-2.22;77.56;102070.16;4993877;28;20051;-85
2021/01/09 01:58:26;;;;;;;18.88;7.18;;;;;;;-2.25;77.48;102070.59;4980536;28;20487;-83
2021/01/09 02:00:53;;;;;;;11.30;6.55;;;;;;;-2.32;77.39;102059.03;4978994;28;20126;-84
2021/01/09 02:03:21;;;;;;;16.00;6.63;;;;;;;-2.34;77.43;102065.72;4975323;28;20055;-84
2021/01/09 02:06:06;;;;;;;15.07;5.70;;;;;;;-2.35;77.79;102064.91;4964384;28;20047;-83
2021/01/09 02:08:39;;;;;;;11.48;5.72;;;;;;;-2.37;77.58;102071.59;4977797;28;20045;-84
2021/01/09 02:11:13;;;;;;;10.35;6.40;;;;;;;-2.37;77.63;102069.72;4969114;28;20168;-86
2021/01/09 02:13:44;;;;;;;14.10;6.55;;;;;;;-2.39;77.47;102066.41;4983309;28;20381;-83
2021/01/09 02:16:11;;;;;;;10.70;5.82;;;;;;;-2.39;78.06;102068.31;4964159;28;20062;-85
2021/01/09 02:18:40;;;;;;;31.95;12.93;;;;;;;-2.37;77.62;102072.44;4975584;28;20062;-83
2021/01/09 02:21:40;;;;;;;18.77;8.32;;;;;;;-2.36;77.54;102071.41;4977625;28;20483;-85
2021/01/09 02:24:14;;;;;;;21.10;9.48;;;;;;;-2.35;77.56;102073.03;4994729;28;20054;-84
2021/01/09 02:26:41;;;;;;;17.20;8.32;;;;;;;-2.36;77.44;102068.69;4966061;28;20066;-85
2021/01/09 02:29:08;;;;;;;23.25;10.60;;;;;;;-2.36;77.47;102073.28;4995625;28;20097;-84
2021/01/09 02:31:41;;;;;;;19.10;9.77;;;;;;;-2.39;77.69;102068.31;4970828;28;20046;-84
2021/01/09 02:34:10;;;;;;;21.65;12.70;;;;;;;-2.43;77.36;102067.91;4958751;28;20051;-85
2021/01/09 02:36:39;;;;;;;23.60;12.38;;;;;;;-2.48;77.47;102075.91;4980450;28;20491;-84
2021/01/09 02:39:05;;;;;;;22.38;12.02;;;;;;;-2.55;77.81;102080.59;4978045;28;20046;-84
2021/01/09 02:41:34;;;;;;;23.33;11.63;;;;;;;-2.59;77.68;102079.38;4977871;28;20042;-85
2021/01/09 02:44:10;;;;;;;21.15;11.60;;;;;;;-2.62;77.89;102074.41;4961446;28;20061;-85
2021/01/09 02:46:37;;;;;;;22.30;11.98;;;;;;;-2.62;78.01;102079.84;4995093;28;20105;-84
2021/01/09 02:49:05;;;;;;;26.98;11.05;;;;;;;-2.67;77.78;102076.94;4990084;28;20457;-84
2021/01/09 02:51:32;;;;;;;23.50;10.43;;;;;;;-2.68;78.11;102080.72;4948847;28;20099;-85
2021/01/09 02:53:58;;;;;;;21.67;11.52;;;;;;;-2.70;78.36;102077.44;4956466;28;20054;-84
2021/01/09 02:56:25;;;;;;;29.00;11.25;;;;;;;-2.70;77.89;102072.00;4967302;28;20042;-83
2021/01/09 02:58:51;;;;;;;26.15;11.25;;;;;;;-2.70;78.09;102077.44;4977817;28;20055;-84
2021/01/09 03:01:18;;;;;;;23.90;11.32;;;;;;;-2.69;78.04;102068.22;4965536;28;20050;-83
2021/01/09 03:03:44;;;;;;;31.80;11.80;;;;;;;-2.68;77.90;102080.72;4960106;28;20089;-83
2021/01/09 03:06:11;;;;;;;25.52;13.48;;;;;;;-2.70;78.00;102082.84;4991659;28;20062;-85
2021/01/09 03:08:38;;;;;;;27.50;11.60;;;;;;;-2.68;77.78;102086.16;4974367;28;20047;-85
2021/01/09 03:11:05;;;;;;;27.23;13.63;;;;;;;-2.70;77.92;102082.84;4981132;28;20104;-84
2021/01/09 03:13:31;;;;;;;34.80;16.02;;;;;;;-2.70;78.15;102077.44;4968790;28;20047;-84
2021/01/09 03:15:59;;;;;;;40.50;16.17;;;;;;;-2.74;78.13;102087.03;4961515;28;20046;-83
2021/01/09 03:18:26;;;;;;;38.65;18.67;;;;;;;-2.78;78.16;102091.28;4992446;28;20039;-85
2021/01/09 03:20:53;;;;;;;37.65;17.45;;;;;;;-2.75;78.18;102088.09;4973496;28;20065;-85
2021/01/09 03:23:19;;;;;;;34.25;15.48;;;;;;;-2.78;78.07;102083.94;4994179;28;20058;-85
2021/01/09 03:25:46;;;;;;;34.83;16.60;;;;;;;-2.77;78.53;102082.06;4989083;28;20046;-84
2021/01/09 03:28:12;;;;;;;31.02;15.35;;;;;;;-2.76;78.59;102090.00;4981899;28;20046;-84
2021/01/09 03:30:40;;;;;;;34.50;14.30;;;;;;;-2.76;78.59;102091.88;4976543;28;20039;-84
2021/01/09 03:33:06;;;;;;;31.30;12.98;;;;;;;-2.76;78.33;102086.44;4941656;28;20109;-85
2021/01/09 03:35:32;;;;;;;31.70;13.93;;;;;;;-2.76;78.13;102089.16;4972759;28;20043;-84
2021/01/09 03:37:59;;;;;;;26.90;13.57;;;;;;;-2.77;78.29;102090.19;4959261;28;20456;-84
2021/01/09 03:40:26;;;;;;;20.77;11.20;;;;;;;-2.81;78.17;102081.72;4960462;28;20109;-83
2021/01/09 03:42:52;;;;;;;27.27;12.50;;;;;;;-2.86;78.38;102083.44;4959967;28;20187;-84
2021/01/09 03:45:18;;;;;;;23.73;11.68;;;;;;;-2.84;78.75;102092.16;4992426;28;20510;-83
2021/01/09 03:47:45;;;;;;;18.70;9.38;;;;;;;-2.84;78.42;102081.31;4992427;28;20045;-84
2021/01/09 03:50:11;;;;;;;16.38;10.00;;;;;;;-2.83;78.14;102089.22;4960578;28;20043;-84
2021/01/09 03:52:38;;;;;;;24.02;9.88;;;;;;;-2.84;78.65;102087.56;4960133;28;20057;-84
2021/01/09 03:55:05;;;;;;;17.83;10.05;;;;;;;-2.84;78.92;102081.31;5006280;28;20038;-84
2021/01/09 03:57:32;;;;;;;22.67;10.15;;;;;;;-2.86;78.51;102072.59;4973399;28;20051;-84
2021/01/09 03:59:58;;;;;;;19.20;8.50;;;;;;;-2.88;78.41;102085.50;4997054;28;20054;-84
2021/01/09 04:02:24;;;;;;;14.50;8.32;;;;;;;-2.90;78.66;102087.63;4974705;28;20046;-84
2021/01/09 04:04:51;;;;;;;17.92;8.27;;;;;;;-2.89;78.82;102094.72;4973156;28;20046;-84
2021/01/09 04:07:37;;;;;;;19.60;8.77;;;;;;;-2.86;78.81;102094.28;4964336;28;20553;-84
2021/01/09 04:10:24;;;;;;;20.77;10.02;;;;;;;-2.83;78.61;102099.25;4973996;28;20117;-84
2021/01/09 04:12:51;;;;;;;18.52;9.07;;;;;;;-2.82;78.82;102095.47;4988761;28;20065;-84
2021/01/09 04:15:17;;;;;;;13.98;7.80;;;;;;;-2.85;78.55;102093.19;4965982;28;20050;-84
2021/01/09 04:17:43;;;;;;;18.20;8.23;;;;;;;-2.87;78.71;102092.59;4973835;28;20050;-84
2021/01/09 04:20:10;;;;;;;19.50;9.75;;;;;;;-2.87;79.12;102096.16;5001147;28;20038;-85
2021/01/09 04:22:37;;;;;;;16.80;9.40;;;;;;;-2.89;79.14;102089.28;4982237;28;20509;-84
2021/01/09 04:25:04;;;;;;;19.83;10.07;;;;;;;-2.89;79.13;102086.59;4981047;28;20042;-84
2021/01/09 04:27:30;;;;;;;15.07;9.90;;;;;;;-2.86;78.70;102088.84;4993490;28;20474;-84
2021/01/09 04:29:56;;;;;;;25.58;10.75;;;;;;;-2.88;79.12;102091.78;4960034;28;20050;-85
2021/01/09 04:32:23;;;;;;;21.70;10.57;;;;;;;-2.88;78.60;102093.66;5012597;28;20042;-83
2021/01/09 04:34:49;;;;;;;17.92;10.60;;;;;;;-2.93;79.30;102086.19;4968086;28;20548;-84
2021/01/09 04:37:16;;;;;;;19.70;10.18;;;;;;;-2.91;79.39;102091.41;4984097;28;20462;-84
2021/01/09 04:39:42;;;;;;;22.45;10.65;;;;;;;-2.90;78.81;102087.63;4955958;28;20475;-84
2021/01/09 04:42:09;;;;;;;16.20;9.90;;;;;;;-2.92;78.84;102096.00;4980534;28;20114;-85
2021/01/09 04:44:37;;;;;;;23.17;10.52;;;;;;;-2.92;78.67;102095.16;4960234;28;20049;-84
2021/01/09 04:47:05;;;;;;;16.83;10.82;;;;;;;-2.92;79.36;102097.88;4969113;28;20093;-84
2021/01/09 04:49:31;;;;;;;17.13;9.55;;;;;;;-2.95;79.32;102098.31;4961830;28;20093;-84
2021/01/09 04:52:02;;;;;;;17.63;9.68;;;;;;;-2.97;79.12;102108.53;4961092;28;20058;-86
2021/01/09 04:54:30;;;;;;;22.48;10.32;;;;;;;-2.98;78.92;102096.88;4964188;28;20149;-85
2021/01/09 04:56:56;;;;;;;16.95;10.02;;;;;;;-3.01;79.07;102100.03;4968198;28;20047;-85
2021/01/09 04:59:24;;;;;;;16.73;9.77;;;;;;;-3.04;79.34;102096.94;4979466;28;20113;-83
2021/01/09 05:01:52;;;;;;;18.33;9.40;;;;;;;-3.06;79.38;102097.16;4976024;28;20391;-84
2021/01/09 05:04:20;;;;;;;18.83;10.07;;;;;;;-3.09;79.11;102093.00;4975651;28;20057;-85
2021/01/09 05:06:47;;;;;;;20.02;9.55;;;;;;;-3.12;79.53;102093.44;4976098;28;20097;-84
2021/01/09 05:09:15;;;;;;;17.02;9.52;;;;;;;-3.10;79.41;102109.50;4973031;28;20042;-85
2021/01/09 05:11:45;;;;;;;23.05;10.27;;;;;;;-3.10;79.49;102094.06;4958643;28;20099;-84
2021/01/09 05:14:11;;;;;;;17.70;10.35;;;;;;;-3.11;79.02;102097.84;4957061;28;20484;-84
2021/01/09 05:16:39;;;;;;;19.65;10.60;;;;;;;-3.10;79.04;102104.88;4967039;28;20482;-84
2021/01/09 05:19:07;;;;;;;20.02;10.43;;;;;;;-3.10;79.53;102098.66;4973986;28;20573;-85
2021/01/09 05:21:35;;;;;;;20.30;11.30;;;;;;;-3.11;79.47;102099.72;4968914;28;20039;-84
2021/01/09 05:24:09;;;;;;;16.40;10.20;;;;;;;-3.13;79.66;102104.53;4958037;28;20046;-84
2021/01/09 05:26:37;;;;;;;20.15;10.93;;;;;;;-3.12;79.59;102111.59;4976341;28;20041;-85
2021/01/09 05:29:05;;;;;;;34.20;12.35;;;;;;;-3.14;79.42;102113.69;4960501;28;20050;-84
2021/01/09 05:31:35;;;;;;;25.40;10.52;;;;;;;-3.18;79.80;102118.72;4963751;28;20490;-84
2021/01/09 05:34:04;;;;;;;20.98;10.65;;;;;;;-3.15;79.37;102114.75;4963774;28;20045;-84
2021/01/09 05:36:31;;;;;;;25.15;11.75;;;;;;;-3.15;79.57;102112.84;4996361;28;20038;-84
2021/01/09 05:38:59;;;;;;;27.10;10.63;;;;;;;-3.15;79.43;102120.97;4968392;28;20038;-84
2021/01/09 05:41:26;;;;;;;21.58;9.65;;;;;;;-3.13;79.07;102118.91;4978848;28;20038;-85
2021/01/09 05:44:07;;;;;;;18.95;8.95;;;;;;;-3.14;78.93;102117.22;4978377;28;20035;-85
2021/01/09 05:46:39;;;;;;;18.90;9.43;;;;;;;-3.13;78.99;102118.91;4962790;28;20049;-84
2021/01/09 05:49:06;;;;;;;17.65;9.15;;;;;;;-3.14;79.12;102119.09;4977406;28;20041;-85
2021/01/09 05:51:34;;;;;;;19.45;9.23;;;;;;;-3.19;79.27;102119.78;4978498;28;20121;-85
2021/01/09 05:54:01;;;;;;;17.38;9.75;;;;;;;-3.22;79.38;102117.50;4977723;28;20514;-85
2021/01/09 05:56:28;;;;;;;15.65;9.93;;;;;;;-3.24;79.71;102125.03;4980541;28;20084;-85
2021/01/09 05:58:56;;;;;;;20.85;9.23;;;;;;;-3.26;79.19;102132.56;4979994;28;20058;-84
2021/01/09 06:01:28;;;;;;;19.20;9.15;;;;;;;-3.27;79.35;102125.47;4979693;28;20042;-84
2021/01/09 06:04:03;;;;;;;16.95;9.13;;;;;;;-3.25;79.30;102138.78;4978282;28;20133;-85
2021/01/09 06:06:52;;;;;;;18.58;10.30;;;;;;;-3.24;79.55;102141.28;4975489;28;20047;-84
2021/01/09 06:09:34;;;;;;;18.92;10.77;;;;;;;-3.27;79.06;102141.72;4956745;28;20046;-84
2021/01/09 06:12:06;;;;;;;20.42;8.68;;;;;;;-3.29;79.22;102143.81;4974492;28;20031;-85
2021/01/09 06:14:35;;;;;;;16.05;9.77;;;;;;;-3.31;79.05;102145.91;4987714;28;20077;-84
2021/01/09 06:17:03;;;;;;;21.70;10.35;;;;;;;-3.32;79.23;102138.84;4978015;28;20050;-84
2021/01/09 06:19:31;;;;;;;21.15;10.40;;;;;;;-3.31;79.40;102143.19;5000301;28;20126;-84
2021/01/09 06:22:00;;;;;;;16.35;10.05;;;;;;;-3.31;79.47;102145.91;4984961;28;20065;-84
2021/01/09 06:24:27;;;;;;;19.48;10.15;;;;;;;-3.31;79.38;102142.38;4975541;28;20049;-84
2021/01/09 06:26:55;;;;;;;21.60;9.45;;;;;;;-3.32;79.00;102152.38;4977979;28;20105;-85
2021/01/09 06:29:25;;;;;;;20.92;9.57;;;;;;;-3.37;79.24;102141.38;4977922;28;20101;-86
2021/01/09 06:31:54;;;;;;;23.38;11.13;;;;;;;-3.39;79.56;102143.44;4974914;28;20495;-84
2021/01/09 06:34:26;;;;;;;18.58;10.27;;;;;;;-3.44;79.90;102146.00;4955258;28;20041;-83
2021/01/09 06:37:01;;;;;;;19.63;11.02;;;;;;;-3.47;79.73;102149.16;4948684;28;20039;-85
2021/01/09 06:39:33;;;;;;;16.80;9.68;;;;;;;-3.47;79.79;102149.16;4962077;28;20042;-85
2021/01/09 06:42:04;;;;;;;15.38;9.00;;;;;;;-3.43;79.73;102146.81;4964527;28;20063;-84
2021/01/09 06:44:31;;;;;;;26.50;10.20;;;;;;;-3.45;79.74;102146.22;4974103;28;20505;-85
2021/01/09 06:46:58;;;;;;;25.05;9.43;;;;;;;-3.43;79.59;102158.50;4974940;28;20047;-84
2021/01/09 06:49:25;;;;;;;22.80;10.68;;;;;;;-3.41;79.78;102150.97;4958660;28;20051;-86
2021/01/09 06:52:01;;;;;;;17.65;9.57;;;;;;;-3.42;79.74;102149.34;4956810;28;20432;-85
2021/01/09 06:54:38;;;;;;;17.17;9.60;;;;;;;-3.43;79.53;102155.78;4960001;28;20053;-85
2021/01/09 06:57:19;;;;;;;17.17;9.90;;;;;;;-3.45;79.79;102160.59;4983048;28;20042;-85
2021/01/09 06:59:50;;;;;;;19.17;9.85;;;;;;;-3.48;79.79;102160.19;4978360;28;20070;-84
2021/01/09 07:02:19;;;;;;;18.15;9.48;;;;;;;-3.47;80.23;102162.69;4998936;28;20045;-85
2021/01/09 07:05:05;;;;;;;22.27;10.93;;;;;;;-3.46;79.72;102158.91;5014142;28;20124;-84
2021/01/09 07:07:51;;;;;;;19.45;10.32;;;;;;;-3.45;79.74;102159.75;4983196;28;20046;-84
2021/01/09 07:10:21;;;;;;;22.60;9.25;;;;;;;-3.46;79.70;102152.66;4961574;28;20042;-86
2021/01/09 07:12:50;;;;;;;16.60;8.73;;;;;;;-3.43;79.44;102163.06;4977621;28;20038;-85
2021/01/09 07:15:17;;;;;;;21.27;10.55;;;;;;;-3.42;79.78;102168.28;4961797;28;20050;-85
2021/01/09 07:17:49;;;;;;;18.33;10.07;;;;;;;-3.42;79.72;102159.31;4974760;28;20479;-84
2021/01/09 07:20:18;;;;;;;18.20;10.95;;;;;;;-3.43;79.73;102160.34;4948988;28;20039;-85
2021/01/09 07:22:52;;;;;;;23.00;10.25;;;;;;;-3.44;79.76;102161.44;4995351;28;20046;-86
2021/01/09 07:25:38;;;;;;;20.92;10.85;;;;;;;-3.47;79.78;102162.69;4981551;28;20042;-85
2021/01/09 07:28:10;;;;;;;17.35;10.50;;;;;;;-3.47;79.82;102162.69;4961211;28;20066;-85
2021/01/09 07:30:37;;;;;;;19.83;9.02;;;;;;;-3.46;79.66;102156.22;4986922;28;20046;-86
2021/01/09 07:33:10;;;;;;;17.95;9.45;;;;;;;-3.47;79.52;102160.00;4994467;28;20046;-84
2021/01/09 07:35:37;;;;;;;;;;;;;;;-3.49;80.01;102164.78;4962381;28;20046;-85
2021/01/09 07:38:05;;;;;;;21.70;10.27;;;;;;;-3.53;79.94;102168.13;4975099;28;19926;-84
2021/01/09 07:40:49;;;;;;;18.73;10.75;;;;;;;-3.56;79.87;102166.69;4942194;28;20047;-84
2021/01/09 07:43:43;;;;;;;17.60;11.18;;;;;;;-3.56;80.32;102163.16;4958336;28;20053;-84
2021/01/09 07:46:23;;;;;;;21.25;10.40;;;;;;;-3.57;79.61;102167.72;4967262;28;20069;-84
2021/01/09 07:48:50;;;;;;;17.73;9.50;;;;;;;-3.55;79.89;102160.25;4957791;28;20066;-85
2021/01/09 07:51:40;;;;;;;15.00;9.45;;;;;;;-3.57;80.02;102162.31;4957691;28;20046;-85
2021/01/09 07:54:08;;;;;;;18.40;10.27;;;;;;;-3.56;80.13;102163.16;4960441;28;20058;-85
2021/01/09 07:56:38;;;;;;;17.15;10.02;;;;;;;-3.58;80.16;102165.25;4971158;28;20094;-85
2021/01/09 07:59:05;;;;;;;16.25;9.93;;;;;;;-3.58;80.45;102155.25;4941786;28;20750;-83
2021/01/09 08:01:43;;;;;;;14.57;8.93;;;;;;;-3.58;80.86;102166.09;4967005;28;20037;-85
2021/01/09 08:04:12;;;;;;;21.95;11.00;;;;;;;-3.58;80.50;102171.50;4955983;28;20050;-85
2021/01/09 08:06:39;;;;;;;18.50;9.05;;;;;;;-3.57;80.43;102165.03;4971466;28;20042;-85
2021/01/09 08:09:06;;;;;;;15.95;9.77;;;;;;;-3.57;80.17;102175.03;4958289;28;20128;-85
2021/01/09 08:11:46;;;;;;;17.85;9.32;;;;;;;-3.56;80.65;102182.09;4954273;29;20035;-85
2021/01/09 08:14:14;;;;;;;16.58;9.82;;;;;;;-3.57;80.49;102186.69;4971307;28;20530;-85
2021/01/09 08:16:41;;;;;;;22.70;9.48;;;;;;;-3.58;80.67;102185.03;4957608;28;20134;-85
2021/01/09 08:19:18;;;;;;;18.13;8.65;;;;;;;-3.58;80.56;102182.31;4954106;29;20110;-85
2021/01/09 08:21:57;;;;;;;17.63;9.63;;;;;;;-3.57;80.48;102181.25;4938631;28;20500;-84
2021/01/09 08:24:25;;;;;;;16.88;9.35;;;;;;;-3.54;80.28;102188.94;4973454;28;20399;-85
2021/01/09 08:26:53;;;;;;;18.80;10.00;;;;;;;-3.54;80.79;102180.84;4940867;28;20083;-84
2021/01/09 08:29:23;;;;;;;16.33;8.93;;;;;;;-3.52;80.47;102180.63;4957604;28;20038;-85
2021/01/09 08:31:51;;;;;;;19.60;11.27;;;;;;;-3.53;80.33;102179.81;4940803;29;20050;-85
2021/01/09 08:34:18;;;;;;;20.40;10.20;;;;;;;-3.51;80.19;102193.94;4938341;29;20039;-85
2021/01/09 08:36:46;;;;;;;15.77;10.20;;;;;;;-3.50;80.20;102179.38;4953067;28;20114;-84
2021/01/09 08:39:14;;;;;;;15.90;9.57;;;;;;;-3.48;80.21;102182.69;4940660;28;20049;-85
2021/01/09 08:41:42;;;;;;;14.73;9.45;;;;;;;-3.51;80.43;102183.09;4961135;28;20050;-85
2021/01/09 08:44:13;;;;;;;18.70;9.98;;;;;;;-3.51;80.42;102183.09;4976431;28;20493;-83
2021/01/09 08:46:41;;;;;;;17.02;9.30;;;;;;;-3.50;80.44;102184.78;4941023;28;20046;-83
2021/01/09 08:49:25;;;;;;;17.05;10.48;;;;;;;-3.52;80.49;102186.06;4989351;28;20057;-83
2021/01/09 08:52:06;;;;;;;22.42;10.48;;;;;;;-3.55;80.45;102183.78;4960108;28;20050;-85
2021/01/09 08:54:34;;;;;;;19.90;10.10;;;;;;;-3.56;80.58;102190.22;4959777;28;20558;-84
2021/01/09 08:57:03;;;;;;;22.15;10.75;;;;;;;-3.55;80.79;102192.72;4986949;28;20042;-84
2021/01/09 08:59:30;;;;;;;23.40;11.35;;;;;;;-3.54;81.05;102197.06;4976135;28;20553;-84
2021/01/09 09:02:10;;;;;;;19.88;11.77;;;;;;;-3.53;80.88;102193.34;4960979;28;20042;-84
2021/01/09 09:04:42;;;;;;;20.65;12.10;;;;;;;-3.51;80.69;102204.78;4977719;28;20039;-85
2021/01/09 09:07:09;;;;;;;17.17;11.40;;;;;;;-3.49;80.77;102199.13;4979376;28;20042;-84
2021/01/09 09:09:41;;;;;;;21.88;10.20;;;;;;;-3.46;80.85;102198.69;4979959;28;20047;-83
2021/01/09 09:12:07;;;;;;;20.48;11.45;;;;;;;-3.44;80.35;102194.72;4979768;28;20112;-85
2021/01/09 09:14:34;;;;;;;18.30;11.05;;;;;;;-3.42;80.93;102203.47;4963637;28;20042;-84
2021/01/09 09:17:04;;;;;;;26.60;13.05;;;;;;;-3.39;80.59;102197.59;4997283;28;20089;-85
2021/01/09 09:19:35;;;;;;;46.65;13.27;;;;;;;-3.38;80.47;102206.56;4979757;28;20065;-84
2021/01/09 09:22:03;;;;;;;20.98;9.85;;;;;;;-3.37;80.63;102214.47;4981720;28;20526;-84
2021/01/09 09:24:43;;;;;;;24.77;15.32;;;;;;;-3.33;81.17;102226.53;4993780;28;20046;-83
2021/01/09 09:27:25;;;;;;;26.63;13.65;;;;;;;-3.29;80.97;102218.81;4962200;28;20442;-86
2021/01/09 09:30:06;;;;;;;19.88;12.02;;;;;;;-3.27;80.70;102228.38;4978681;28;20039;-83
2021/01/09 09:32:34;;;;;;;25.63;12.60;;;;;;;-3.28;80.82;102232.13;4959105;28;20070;-84
2021/01/09 09:35:23;;;;;;;20.40;12.13;;;;;;;-3.23;80.83;102229.56;4955421;28;20042;-85
2021/01/09 09:37:50;;;;;;;19.50;10.95;;;;;;;-3.19;81.09;102233.53;4958916;28;20054;-84
2021/01/09 09:40:20;;;;;;;21.35;11.05;;;;;;;-3.17;81.07;102238.72;4953601;28;20798;-84
2021/01/09 09:42:49;;;;;;;26.52;13.32;;;;;;;-3.15;81.05;102242.88;4963840;28;20096;-85
2021/01/09 09:45:19;;;;;;;23.33;12.30;;;;;;;-3.10;81.25;102244.94;4987709;28;20142;-84
2021/01/09 09:47:50;;;;;;;20.92;10.60;;;;;;;-3.08;81.41;102242.84;4964919;28;20046;-85
2021/01/09 09:50:25;;;;;;;22.23;11.30;;;;;;;-3.03;81.05;102244.88;4965793;28;20050;-85
2021/01/09 09:52:59;;;;;;;19.50;10.85;;;;;;;-3.00;81.00;102248.00;4958042;28;20389;-84
2021/01/09 09:55:25;;;;;;;22.10;12.40;;;;;;;-2.95;81.24;102255.44;4966900;28;20035;-84
2021/01/09 09:58:27;;;;;;;16.85;9.98;;;;;;;-2.92;81.39;102249.59;4973770;28;20109;-85
2021/01/09 10:00:54;;;;;;;20.20;9.82;;;;;;;-2.89;81.33;102258.13;4982023;28;20499;-84
2021/01/09 10:03:37;;;;;;;21.25;11.77;;;;;;;-2.84;81.30;102257.47;4973113;28;20042;-85
2021/01/09 10:06:03;;;;;;;17.30;11.57;;;;;;;-2.79;81.10;102252.22;4977842;28;20039;-85
2021/01/09 10:08:30;;;;;;;17.17;10.23;;;;;;;-2.77;81.26;102260.94;4977752;28;20495;-84
2021/01/09 10:10:56;;;;;;;15.13;9.18;;;;;;;-2.74;81.47;102263.22;4961308;28;20046;-83
2021/01/09 10:13:27;;;;;;;17.70;9.85;;;;;;;-2.70;81.43;102261.75;4976053;28;20451;-84
2021/01/09 10:15:57;;;;;;;20.55;10.45;;;;;;;-2.66;81.15;102252.09;4974482;28;20039;-84
2021/01/09 10:18:29;;;;;;;23.35;10.02;;;;;;;-2.61;80.89;102263.09;4958004;28;20070;-84
2021/01/09 10:20:56;;;;;;;15.10;9.38;;;;;;;-2.58;81.30;102257.25;4958581;28;20046;-84
2021/01/09 10:23:24;;;;;;;24.13;9.93;;;;;;;-2.55;81.20;102259.53;4969979;28;20141;-82
2021/01/09 10:25:50;;;;;;;17.67;8.85;;;;;;;-2.50;81.38;102262.41;4993830;28;20522;-83
2021/01/09 10:28:16;;;;;;;19.58;10.55;;;;;;;-2.47;81.17;102265.50;4972402;28;20053;-83
2021/01/09 10:30:43;;;;;;;21.80;9.90;;;;;;;-2.44;81.24;102258.81;4972876;28;20394;-81
2021/01/09 10:33:11;;;;;;;19.38;10.63;;;;;;;-2.39;81.36;102256.25;4976783;28;20042;-82
2021/01/09 10:35:37;;;;;;;24.67;10.57;;;;;;;-2.35;81.28;102243.88;4973989;28;20038;-85
2021/01/09 10:38:03;;;;;;;20.58;10.68;;;;;;;-2.30;81.16;102240.53;4950048;28;20053;-91
2021/01/09 10:40:30;;;;;;;21.70;11.18;;;;;;;-2.27;80.98;102238.19;4972353;28;20047;-82
2021/01/09 10:42:56;;;;;;;19.48;10.70;;;;;;;-2.25;81.41;102240.69;4966858;28;20058;-81
2021/01/09 10:45:23;;;;;;;14.48;8.77;;;;;;;-2.23;81.11;102249.41;4971492;28;20506;-85
2021/01/09 10:47:49;;;;;;;22.75;11.20;;;;;;;-2.20;81.20;102247.09;4959988;28;20054;-81
2021/01/09 10:50:35;;;;;;;25.48;11.77;;;;;;;-2.20;81.19;102241.69;4975275;28;20034;-81
2021/01/09 10:53:04;;;;;;;23.52;11.40;;;;;;;-2.18;81.23;102244.97;4974571;28;20057;-82
2021/01/09 10:55:34;;;;;;;19.35;11.88;;;;;;;-2.16;81.15;102234.72;4995836;28;20052;-81
2021/01/09 10:58:00;;;;;;;21.65;11.45;;;;;;;-2.12;81.51;102230.50;5033428;23;20050;-55
2021/01/09 11:00:27;;;;;;;26.35;11.68;;;;;;;-2.11;81.24;102218.59;5014260;28;20121;-54
2021/01/09 11:02:53;;;;;;;17.60;10.20;;;;;;;-2.07;81.54;102222.53;5006407;28;20038;-51
2021/01/09 11:05:20;;;;;;;18.63;8.73;;;;;;;-2.02;81.43;102219.97;5008112;28;20054;-60
2021/01/09 11:07:46;;;;;;;18.30;11.13;;;;;;;-1.99;80.97;102221.41;5008385;28;20050;-55
2021/01/09 11:10:12;;;;;;;20.73;10.27;;;;;;;-1.95;81.35;102228.03;5009519;28;20054;-54
2021/01/09 11:12:39;;;;;;;19.65;10.73;;;;;;;-1.91;81.60;102224.63;5010802;28;20396;-55
2021/01/09 11:15:06;;;;;;;17.70;10.27;;;;;;;-1.86;81.26;102230.22;5009129;28;20042;-53
2021/01/09 11:17:32;;;;;;;18.00;9.13;;;;;;;-1.81;81.19;102218.69;4992340;28;20037;-55
2021/01/09 11:19:59;;;;;;;16.30;9.60;;;;;;;-1.75;81.09;102235.94;5010300;28;20046;-55
2021/01/09 11:22:25;;;;;;;16.05;7.68;;;;;;;-1.70;80.99;102236.09;5009539;28;20361;-54
2021/01/09 11:24:51;;;;;;;11.73;7.78;;;;;;;-1.65;81.06;102241.66;5010413;28;20056;-54